Time;durP1;ratioP1;P1;durP2;ratioP2;P2;SDS_P1;SDS_P2;PMS_P1;PMS_P2;Temp;Humidity;BMP_temperature;BMP_pressure;BME280_temperature;BME280_humidity;BME280_pressure;Samples;Min_cycle;Max_cycle;Signal;HPM_P1;HPM_P2
2022/06/20 00:01:15;;;;;;;6.90;2.57;;;;;;;;;;4991499;28;20202;-55
2022/06/20 00:03:41;;;;;;;4.33;2.10;;;;;;;;;;4991777;28;20281;-55
2022/06/20 00:06:10;;;;;;;7.00;2.40;;;;;;;;;;4991446;28;20236;-55
2022/06/20 00:08:36;;;;;;;6.40;2.20;;;;;;;;;;4991644;28;20202;-55
2022/06/20 00:11:03;;;;;;;6.60;2.27;;;;;;;;;;4991771;28;20666;-55
2022/06/20 00:13:33;;;;;;;4.93;2.13;;;;;;;;;;4991541;28;20679;-54
2022/06/20 00:16:00;;;;;;;13.33;3.10;;;;;;;;;;4991414;28;20253;-54
2022/06/20 00:18:26;;;;;;;10.23;2.73;;;;;;;;;;4991200;28;20202;-55
2022/06/20 00:20:52;;;;;;;5.20;2.27;;;;;;;;;;4991535;28;20258;-55
2022/06/20 00:23:18;;;;;;;7.47;2.20;;;;;;;;;;4991632;28;20213;-55
2022/06/20 00:25:45;;;;;;;6.03;2.50;;;;;;;;;;4994983;28;20210;-55
2022/06/20 00:28:13;;;;;;;7.27;2.63;;;;;;;;;;4994657;28;20206;-55
2022/06/20 00:30:39;;;;;;;7.73;2.90;;;;;;;;;;4994719;28;20650;-55
2022/06/20 00:33:05;;;;;;;5.70;2.07;;;;;;;;;;4994689;28;20319;-56
2022/06/20 00:35:32;;;;;;;7.43;2.30;;;;;;;;;;4994818;28;20222;-56
2022/06/20 00:37:59;;;;;;;5.17;2.43;;;;;;;;;;4994747;28;20193;-55
2022/06/20 00:40:27;;;;;;;5.00;2.20;;;;;;;;;;4994695;28;20293;-56
2022/06/20 00:42:53;;;;;;;4.17;1.97;;;;;;;;;;4994529;28;20652;-56
2022/06/20 00:45:21;;;;;;;4.50;2.20;;;;;;;;;;4994343;28;20252;-56
2022/06/20 00:47:48;;;;;;;4.93;2.23;;;;;;;;;;4994725;28;20222;-56
2022/06/20 00:50:17;;;;;;;4.97;2.10;;;;;;;;;;4994430;28;20209;-56
2022/06/20 00:52:45;;;;;;;5.97;2.17;;;;;;;;;;4994614;28;20297;-56
2022/06/20 00:55:13;;;;;;;5.97;2.60;;;;;;;;;;4994508;28;20253;-56
2022/06/20 00:57:41;;;;;;;8.87;3.17;;;;;;;;;;4994415;28;20205;-56
2022/06/20 01:00:09;;;;;;;7.00;2.23;;;;;;;;;;4994220;28;20199;-56
2022/06/20 01:02:39;;;;;;;9.00;2.63;;;;;;;;;;4994326;28;20292;-56
2022/06/20 01:05:07;;;;;;;5.43;2.20;;;;;;;;;;4994455;28;20597;-56
2022/06/20 01:07:37;;;;;;;8.80;2.97;;;;;;;;;;4994179;28;20198;-56
2022/06/20 01:10:03;;;;;;;5.67;2.60;;;;;;;;;;4994010;28;20208;-56
2022/06/20 01:12:32;;;;;;;5.63;2.40;;;;;;;;;;4994356;28;20195;-56
2022/06/20 01:14:58;;;;;;;5.20;2.37;;;;;;;;;;4993965;28;20237;-56
2022/06/20 01:17:28;;;;;;;5.83;2.53;;;;;;;;;;4993906;28;20712;-56
2022/06/20 01:19:57;;;;;;;6.67;2.60;;;;;;;;;;4994140;28;20206;-55
2022/06/20 01:22:37;;;;;;;7.23;2.73;;;;;;;;;;4994125;28;20676;-56
2022/06/20 01:25:08;;;;;;;6.50;2.77;;;;;;;;;;4993943;28;20190;-56
2022/06/20 01:27:38;;;;;;;6.80;2.80;;;;;;;;;;4993951;28;20234;-56
2022/06/20 01:30:05;;;;;;;5.27;2.67;;;;;;;;;;4993617;28;20581;-56
2022/06/20 01:32:31;;;;;;;4.67;2.53;;;;;;;;;;4993727;28;20198;-54
2022/06/20 01:34:58;;;;;;;6.07;2.77;;;;;;;;;;4992379;28;20317;-55
2022/06/20 01:37:25;;;;;;;8.67;2.93;;;;;;;;;;4993699;28;20206;-55
2022/06/20 01:39:52;;;;;;;7.27;3.00;;;;;;;;;;4993617;28;20206;-55
2022/06/20 01:42:18;;;;;;;5.97;2.20;;;;;;;;;;4993534;28;20209;-55
2022/06/20 01:44:47;;;;;;;8.73;2.97;;;;;;;;;;4993767;28;20293;-55
2022/06/20 01:47:13;;;;;;;5.77;2.43;;;;;;;;;;4993284;28;20249;-54
2022/06/20 01:49:40;;;;;;;6.23;2.53;;;;;;;;;;4993589;28;20213;-55
2022/06/20 01:52:08;;;;;;;4.67;2.77;;;;;;;;;;4993459;28;20202;-54
2022/06/20 01:54:36;;;;;;;6.50;2.73;;;;;;;;;;4993386;28;20265;-54
2022/06/20 01:57:03;;;;;;;5.27;2.73;;;;;;;;;;4993251;28;20542;-55
2022/06/20 01:59:34;;;;;;;5.20;2.60;;;;;;;;;;4993290;28;20202;-55
2022/06/20 02:02:02;;;;;;;4.30;2.30;;;;;;;;;;4993300;28;20202;-54
2022/06/20 02:04:31;;;;;;;5.00;2.40;;;;;;;;;;4993026;28;20202;-55
2022/06/20 02:06:57;;;;;;;6.53;2.40;;;;;;;;;;4993221;28;20198;-55
2022/06/20 02:09:23;;;;;;;6.30;2.50;;;;;;;;;;4993071;28;20244;-54
2022/06/20 02:11:49;;;;;;;4.30;2.33;;;;;;;;;;4993091;28;20195;-54
2022/06/20 02:14:16;;;;;;;3.30;2.77;;;;;;;;;;4992921;28;20214;-55
2022/06/20 02:16:45;;;;;;;4.53;3.07;;;;;;;;;;4993044;28;20205;-55
2022/06/20 02:19:14;;;;;;;4.50;2.73;;;;;;;;;;4992793;28;20198;-54
2022/06/20 02:21:42;;;;;;;3.80;2.70;;;;;;;;;;4992862;28;20305;-54
2022/06/20 02:24:10;;;;;;;7.63;2.80;;;;;;;;;;4992935;28;20574;-54
2022/06/20 02:26:37;;;;;;;5.47;2.90;;;;;;;;;;4992676;28;20249;-54
2022/06/20 02:29:05;;;;;;;5.37;3.10;;;;;;;;;;4992839;28;20212;-54
2022/06/20 02:31:31;;;;;;;5.80;2.63;;;;;;;;;;4992608;28;20296;-54
2022/06/20 02:33:58;;;;;;;4.37;2.53;;;;;;;;;;4992594;28;20656;-55
2022/06/20 02:36:25;;;;;;;5.77;3.00;;;;;;;;;;4992773;28;20198;-54
2022/06/20 02:38:52;;;;;;;5.07;2.60;;;;;;;;;;4992676;28;20722;-55
2022/06/20 02:41:20;;;;;;;4.47;2.77;;;;;;;;;;4992448;28;20261;-54
2022/06/20 02:43:48;;;;;;;6.77;2.87;;;;;;;;;;4992621;28;20234;-54
2022/06/20 02:46:17;;;;;;;7.43;3.37;;;;;;;;;;4992026;28;20202;-55
2022/06/20 02:48:44;;;;;;;6.83;2.67;;;;;;;;;;4992345;28;20202;-55
2022/06/20 02:51:12;;;;;;;7.10;2.63;;;;;;;;;;4990309;28;20676;-54
2022/06/20 02:53:40;;;;;;;6.27;3.00;;;;;;;;;;4992603;28;20220;-54
2022/06/20 02:56:08;;;;;;;8.40;3.10;;;;;;;;;;4992207;28;20236;-55
2022/06/20 02:58:35;;;;;;;8.20;3.47;;;;;;;;;;4992133;28;20658;-54
2022/06/20 03:01:03;;;;;;;6.67;2.77;;;;;;;;;;4992088;28;20300;-54
2022/06/20 03:03:31;;;;;;;5.33;2.90;;;;;;;;;;4991584;28;20256;-54
2022/06/20 03:05:57;;;;;;;4.63;2.47;;;;;;;;;;4991602;28;20202;-54
2022/06/20 03:08:24;;;;;;;7.53;2.63;;;;;;;;;;4991632;28;20241;-54
2022/06/20 03:10:53;;;;;;;7.90;2.53;;;;;;;;;;4992249;28;20237;-54
2022/06/20 03:13:20;;;;;;;7.27;2.80;;;;;;;;;;4992172;28;20579;-54
2022/06/20 03:15:47;;;;;;;6.63;2.63;;;;;;;;;;4992153;28;20225;-54
2022/06/20 03:18:16;;;;;;;8.20;3.03;;;;;;;;;;4991932;28;20249;-54
2022/06/20 03:20:42;;;;;;;9.47;3.17;;;;;;;;;;4992103;28;20198;-55
2022/06/20 03:23:10;;;;;;;7.80;2.50;;;;;;;;;;4992116;28;20194;-55
2022/06/20 03:25:37;;;;;;;6.90;2.17;;;;;;;;;;4991839;28;20210;-55
2022/06/20 03:28:04;;;;;;;7.97;2.90;;;;;;;;;;4991820;28;20240;-54
2022/06/20 03:30:31;;;;;;;6.00;2.63;;;;;;;;;;4991592;28;20268;-55
2022/06/20 03:32:58;;;;;;;6.40;2.50;;;;;;;;;;4991849;28;20225;-54
2022/06/20 03:35:26;;;;;;;5.50;2.60;;;;;;;;;;4991589;28;20314;-55
2022/06/20 03:37:52;;;;;;;5.63;2.50;;;;;;;;;;4991998;28;20209;-55
2022/06/20 03:40:18;;;;;;;6.13;2.40;;;;;;;;;;4991693;28;20309;-54
2022/06/20 03:42:44;;;;;;;6.70;2.20;;;;;;;;;;4991754;28;20225;-55
2022/06/20 03:45:14;;;;;;;6.00;2.70;;;;;;;;;;4991961;28;20194;-54
2022/06/20 03:47:42;;;;;;;7.33;2.57;;;;;;;;;;4991880;28;20218;-54
2022/06/20 03:50:10;;;;;;;6.17;3.03;;;;;;;;;;4991838;28;20202;-54
2022/06/20 03:52:39;;;;;;;6.90;2.90;;;;;;;;;;4991748;28;20618;-54
2022/06/20 03:55:08;;;;;;;6.73;2.90;;;;;;;;;;4991903;28;20230;-54
2022/06/20 03:57:36;;;;;;;6.37;2.70;;;;;;;;;;4991453;28;20203;-54
2022/06/20 04:00:05;;;;;;;6.97;2.97;;;;;;;;;;4994970;28;20229;-54
2022/06/20 04:02:36;;;;;;;5.80;2.73;;;;;;;;;;4995374;28;20202;-53
2022/06/20 04:05:05;;;;;;;6.97;3.60;;;;;;;;;;4995531;28;20202;-54
2022/06/20 04:07:33;;;;;;;6.47;2.67;;;;;;;;;;4995247;28;20221;-54
2022/06/20 04:12:49;;;;;;;7.70;2.90;;;;;;;;;;4995321;28;20198;-54
2022/06/20 04:15:17;;;;;;;5.20;3.27;;;;;;;;;;4995014;28;20234;-54
2022/06/20 04:20:35;;;;;;;10.07;3.33;;;;;;;;;;4995331;28;20309;-55
2022/06/20 04:23:03;;;;;;;8.07;3.10;;;;;;;;;;4995109;28;20276;-54
2022/06/20 04:25:33;;;;;;;7.27;3.00;;;;;;;;;;4994946;28;20338;-54
2022/06/20 04:28:03;;;;;;;8.50;3.33;;;;;;;;;;4995181;28;20198;-54
2022/06/20 04:30:32;;;;;;;5.60;3.10;;;;;;;;;;4995060;28;20238;-54
2022/06/20 04:33:02;;;;;;;7.57;3.20;;;;;;;;;;4994620;28;20555;-54
2022/06/20 04:35:30;;;;;;;5.00;2.70;;;;;;;;;;4994520;28;20230;-54
2022/06/20 04:37:57;;;;;;;5.80;2.90;;;;;;;;;;4994863;28;20198;-54
2022/06/20 04:40:25;;;;;;;9.03;3.77;;;;;;;;;;4994576;28;20245;-54
2022/06/20 04:42:53;;;;;;;11.60;3.53;;;;;;;;;;4994728;28;20202;-54
2022/06/20 04:45:21;;;;;;;6.67;3.37;;;;;;;;;;4994571;28;20194;-54
2022/06/20 04:47:48;;;;;;;7.73;3.23;;;;;;;;;;4994691;28;20204;-55
2022/06/20 04:50:17;;;;;;;7.53;3.00;;;;;;;;;;4994517;28;20285;-54
2022/06/20 04:52:43;;;;;;;7.43;3.03;;;;;;;;;;4994516;28;20202;-54
2022/06/20 04:55:13;;;;;;;9.50;2.83;;;;;;;;;;4994635;28;20631;-55
2022/06/20 04:57:39;;;;;;;6.67;3.40;;;;;;;;;;4993981;28;20202;-54
2022/06/20 05:00:06;;;;;;;6.10;2.77;;;;;;;;;;4994228;28;20289;-54
2022/06/20 05:02:32;;;;;;;11.57;2.90;;;;;;;;;;4994362;28;20198;-54
2022/06/20 05:05:00;;;;;;;4.30;2.80;;;;;;;;;;4993986;28;20209;-54
2022/06/20 05:07:30;;;;;;;6.30;3.03;;;;;;;;;;4994102;28;20198;-54
2022/06/20 05:09:59;;;;;;;7.63;2.73;;;;;;;;;;4993853;28;20210;-54
2022/06/20 05:12:27;;;;;;;6.33;2.87;;;;;;;;;;4993772;28;20221;-54
2022/06/20 05:14:55;;;;;;;7.53;3.47;;;;;;;;;;4993677;28;20230;-54
2022/06/20 05:17:23;;;;;;;8.53;2.60;;;;;;;;;;4993576;28;20206;-54
2022/06/20 05:19:51;;;;;;;8.10;2.70;;;;;;;;;;4993711;28;20206;-54
2022/06/20 05:22:20;;;;;;;8.43;2.33;;;;;;;;;;4993393;28;20209;-54
2022/06/20 05:24:48;;;;;;;7.37;3.00;;;;;;;;;;4993799;28;20191;-54
2022/06/20 05:27:16;;;;;;;7.37;2.40;;;;;;;;;;4994062;28;20226;-54
2022/06/20 05:29:43;;;;;;;8.13;2.70;;;;;;;;;;4993741;28;20198;-54
2022/06/20 05:32:13;;;;;;;7.33;2.67;;;;;;;;;;4993447;28;20665;-55
2022/06/20 05:34:44;;;;;;;8.53;2.90;;;;;;;;;;4993361;28;20230;-55
2022/06/20 05:37:12;;;;;;;7.13;2.73;;;;;;;;;;4993846;28;20241;-54
2022/06/20 05:39:41;;;;;;;13.10;2.73;;;;;;;;;;4993541;28;20221;-54
2022/06/20 05:42:11;;;;;;;7.13;2.47;;;;;;;;;;4993433;28;20226;-54
2022/06/20 05:44:37;;;;;;;6.90;2.37;;;;;;;;;;4993034;28;20194;-54
2022/06/20 05:47:04;;;;;;;6.50;2.80;;;;;;;;;;4993304;28;20198;-54
2022/06/20 05:49:32;;;;;;;7.40;2.53;;;;;;;;;;4993266;28;20195;-54
2022/06/20 05:51:59;;;;;;;11.00;2.80;;;;;;;;;;4993772;28;20237;-54
2022/06/20 05:54:28;;;;;;;7.97;2.73;;;;;;;;;;4993884;28;20245;-54
2022/06/20 05:56:55;;;;;;;7.77;2.70;;;;;;;;;;4993149;28;20217;-54
2022/06/20 05:59:33;;;;;;;7.07;2.30;;;;;;;;;;4992872;28;20612;-54
2022/06/20 06:02:01;;;;;;;7.13;2.50;;;;;;;;;;4993362;28;20213;-53
2022/06/20 06:04:33;;;;;;;7.43;2.40;;;;;;;;;;4993175;28;20205;-54
2022/06/20 06:07:02;;;;;;;8.87;2.43;;;;;;;;;;4993414;28;20252;-54
2022/06/20 06:09:34;;;;;;;9.00;2.53;;;;;;;;;;4993006;28;20202;-54
2022/06/20 06:12:02;;;;;;;8.40;2.90;;;;;;;;;;4993073;28;20280;-54
2022/06/20 06:14:32;;;;;;;7.53;3.10;;;;;;;;;;4992624;28;20324;-54
2022/06/20 06:17:00;;;;;;;6.60;2.37;;;;;;;;;;4992503;28;20677;-52
2022/06/20 06:19:31;;;;;;;11.23;3.20;;;;;;;;;;4992858;28;20268;-53
2022/06/20 06:22:00;;;;;;;8.03;2.93;;;;;;;;;;4990699;28;20278;-53
2022/06/20 06:24:26;;;;;;;10.93;2.90;;;;;;;;;;4992531;28;20198;-53
2022/06/20 06:26:56;;;;;;;11.70;2.70;;;;;;;;;;4992278;28;20305;-52
2022/06/20 06:29:25;;;;;;;5.67;2.70;;;;;;;;;;4992328;28;20198;-53
2022/06/20 06:31:55;;;;;;;8.87;2.33;;;;;;;;;;4992366;28;20249;-53
2022/06/20 06:34:23;;;;;;;5.03;2.30;;;;;;;;;;4992537;28;20204;-53
2022/06/20 06:36:51;;;;;;;8.00;2.50;;;;;;;;;;4992284;28;20206;-53
2022/06/20 06:39:20;;;;;;;11.93;3.00;;;;;;;;;;4992471;28;20290;-53
2022/06/20 06:41:47;;;;;;;7.33;2.60;;;;;;;;;;4992188;28;20210;-53
2022/06/20 06:44:16;;;;;;;5.63;1.90;;;;;;;;;;4992304;28;20230;-53
2022/06/20 06:46:46;;;;;;;12.17;2.87;;;;;;;;;;4991584;28;20557;-53
2022/06/20 06:49:21;;;;;;;7.57;2.37;;;;;;;;;;4992120;28;20491;-53
2022/06/20 06:51:53;;;;;;;10.30;2.40;;;;;;;;;;4991872;28;20285;-53
2022/06/20 06:54:21;;;;;;;6.20;2.10;;;;;;;;;;4990509;28;20217;-53
2022/06/20 06:56:50;;;;;;;5.87;2.20;;;;;;;;;;4992022;28;20209;-53
2022/06/20 06:59:19;;;;;;;9.33;2.70;;;;;;;;;;4992007;28;20199;-53
2022/06/20 07:01:47;;;;;;;7.47;2.17;;;;;;;;;;4991854;28;20207;-53
2022/06/20 07:04:17;;;;;;;4.03;2.17;;;;;;;;;;4992401;28;20608;-52
2022/06/20 07:06:46;;;;;;;10.50;2.10;;;;;;;;;;4992059;28;20230;-54
2022/06/20 07:09:14;;;;;;;5.50;1.90;;;;;;;;;;4991950;28;20214;-54
2022/06/20 07:11:43;;;;;;;6.27;2.40;;;;;;;;;;4991822;28;20204;-54
2022/06/20 07:14:11;;;;;;;4.53;1.73;;;;;;;;;;4991514;28;20201;-54
2022/06/20 07:16:40;;;;;;;6.33;1.83;;;;;;;;;;4991488;28;20239;-55
2022/06/20 07:19:07;;;;;;;4.90;1.97;;;;;;;;;;4992018;28;20204;-54
2022/06/20 07:21:34;;;;;;;9.67;2.40;;;;;;;;;;4991549;28;20204;-54
2022/06/20 07:24:02;;;;;;;5.43;2.00;;;;;;;;;;4991822;28;20205;-55
2022/06/20 07:26:31;;;;;;;5.23;2.20;;;;;;;;;;4991490;28;20216;-54
2022/06/20 07:29:00;;;;;;;5.70;2.10;;;;;;;;;;4990095;28;20200;-54
2022/06/20 07:31:29;;;;;;;5.63;2.57;;;;;;;;;;4992162;28;20260;-55
2022/06/20 07:33:56;;;;;;;5.00;2.10;;;;;;;;;;4994768;28;20254;-54
2022/06/20 07:36:24;;;;;;;6.13;2.10;;;;;;;;;;4996078;28;20229;-55
2022/06/20 07:38:53;;;;;;;7.73;2.20;;;;;;;;;;4995474;28;20190;-55
2022/06/20 07:41:22;;;;;;;5.50;2.27;;;;;;;;;;4995638;28;20693;-54
2022/06/20 07:43:50;;;;;;;6.43;2.17;;;;;;;;;;4995902;28;20255;-54
2022/06/20 07:46:18;;;;;;;5.90;2.43;;;;;;;;;;4995385;28;20292;-55
2022/06/20 07:48:45;;;;;;;5.10;1.90;;;;;;;;;;4995567;28;20198;-55
2022/06/20 07:51:13;;;;;;;5.43;2.00;;;;;;;;;;4995823;28;20239;-54
2022/06/20 07:53:42;;;;;;;5.30;1.87;;;;;;;;;;4995686;28;20208;-54
2022/06/20 07:56:10;;;;;;;4.27;1.93;;;;;;;;;;4995521;28;20226;-55
2022/06/20 07:58:39;;;;;;;6.60;2.00;;;;;;;;;;4995377;28;20212;-54
2022/06/20 08:01:11;;;;;;;5.60;1.60;;;;;;;;;;4995432;28;20283;-55
2022/06/20 08:03:38;;;;;;;8.07;2.00;;;;;;;;;;4995394;28;20216;-54
2022/06/20 08:06:05;;;;;;;5.20;1.83;;;;;;;;;;4995442;28;20722;-54
2022/06/20 08:08:35;;;;;;;6.13;2.60;;;;;;;;;;4995475;28;20243;-56
2022/06/20 08:11:03;;;;;;;8.40;1.87;;;;;;;;;;4995347;28;20537;-57
2022/06/20 08:13:32;;;;;;;6.10;1.90;;;;;;;;;;4995062;28;20301;-53
2022/06/20 08:16:02;;;;;;;5.13;2.07;;;;;;;;;;4995163;28;20248;-55
2022/06/20 08:18:29;;;;;;;5.20;1.93;;;;;;;;;;4994963;28;20244;-53
2022/06/20 08:20:57;;;;;;;4.87;2.00;;;;;;;;;;4995027;28;20198;-55
2022/06/20 08:23:27;;;;;;;6.60;2.17;;;;;;;;;;4994788;28;20660;-56
2022/06/20 08:25:54;;;;;;;5.20;1.90;;;;;;;;;;4995054;28;20202;-55
2022/06/20 08:28:22;;;;;;;4.30;1.73;;;;;;;;;;4995007;28;20206;-53
2022/06/20 08:30:50;;;;;;;3.97;1.63;;;;;;;;;;4986183;28;20272;-54
2022/06/20 08:33:22;;;;;;;2.63;1.53;;;;;;;;;;4994716;28;20269;-56
2022/06/20 08:35:49;;;;;;;4.90;1.70;;;;;;;;;;4994486;28;20241;-56
2022/06/20 08:38:17;;;;;;;4.57;1.70;;;;;;;;;;4994442;28;20689;-56
2022/06/20 08:41:01;;;;;;;4.63;1.80;;;;;;;;;;4994338;28;20297;-55
2022/06/20 08:43:47;;;;;;;2.67;1.67;;;;;;;;;;4994539;28;20562;-55
2022/06/20 08:46:27;;;;;;;3.27;1.57;;;;;;;;;;4994576;28;20194;-56
2022/06/20 08:49:11;;;;;;;4.13;1.70;;;;;;;;;;4994503;28;20194;-55
2022/06/20 08:52:07;;;;;;;3.43;1.70;;;;;;;;;;4993834;28;20857;-56
2022/06/20 08:54:50;;;;;;;4.47;1.50;;;;;;;;;;4994263;28;20209;-55
2022/06/20 08:57:20;;;;;;;3.97;1.47;;;;;;;;;;4994484;28;20198;-56
2022/06/20 08:59:53;;;;;;;3.70;1.63;;;;;;;;;;4994052;28;20720;-56
2022/06/20 09:02:43;;;;;;;3.03;1.43;;;;;;;;;;4994334;28;20202;-57
2022/06/20 09:05:20;;;;;;;3.10;1.60;;;;;;;;;;4974483;28;20680;-56
2022/06/20 09:08:01;;;;;;;3.70;1.70;;;;;;;;;;4993869;28;20199;-55
2022/06/20 09:10:37;;;;;;;3.77;1.60;;;;;;;;;;4994138;28;20605;-57
2022/06/20 09:13:17;;;;;;;4.13;1.53;;;;;;;;;;4994141;28;20206;-56
2022/06/20 09:15:50;;;;;;;3.33;1.43;;;;;;;;;;4991696;28;20220;-56
2022/06/20 09:18:23;;;;;;;4.43;1.50;;;;;;;;;;4993926;28;20293;-55
2022/06/20 09:20:52;;;;;;;1.90;1.13;;;;;;;;;;4993671;28;20694;-55
2022/06/20 09:23:29;;;;;;;3.43;1.70;;;;;;;;;;4993862;28;20212;-55
2022/06/20 09:26:01;;;;;;;2.27;1.40;;;;;;;;;;4993822;28;20636;-55
2022/06/20 09:28:49;;;;;;;2.30;0.90;;;;;;;;;;4993654;28;20199;-55
2022/06/20 09:31:23;;;;;;;4.37;1.50;;;;;;;;;;4993637;28;20234;-55
2022/06/20 09:33:57;;;;;;;2.00;1.10;;;;;;;;;;4993762;28;20213;-56
2022/06/20 09:36:49;;;;;;;2.80;1.67;;;;;;;;;;4993550;28;20304;-55
2022/06/20 09:39:19;;;;;;;4.07;1.50;;;;;;;;;;4990418;28;20238;-55
2022/06/20 09:41:53;;;;;;;3.37;1.60;;;;;;;;;;4991462;28;20205;-55
2022/06/20 09:44:21;;;;;;;2.37;1.00;;;;;;;;;;4991420;28;20515;-55
2022/06/20 09:46:55;;;;;;;5.30;1.83;;;;;;;;;;4991371;28;20205;-55
2022/06/20 09:49:27;;;;;;;3.93;1.60;;;;;;;;;;4991392;28;20268;-54
2022/06/20 09:51:55;;;;;;;4.20;1.50;;;;;;;;;;4991221;28;20202;-54
2022/06/20 09:54:26;;;;;;;2.77;1.47;;;;;;;;;;4992413;28;20552;-54
2022/06/20 09:56:59;;;;;;;2.40;1.53;;;;;;;;;;4991946;28;20681;-53
2022/06/20 09:59:28;;;;;;;2.03;1.20;;;;;;;;;;4992899;28;20261;-53
2022/06/20 10:01:59;;;;;;;3.70;1.67;;;;;;;;;;4992906;28;20207;-54
2022/06/20 10:04:28;;;;;;;3.53;1.47;;;;;;;;;;4992731;28;20229;-53
2022/06/20 10:07:00;;;;;;;4.30;1.70;;;;;;;;;;4992727;28;20201;-54
2022/06/20 10:09:30;;;;;;;3.43;1.40;;;;;;;;;;4993046;28;20212;-54
2022/06/20 10:12:01;;;;;;;1.43;1.10;;;;;;;;;;4992662;28;20206;-54
2022/06/20 10:14:31;;;;;;;3.93;1.60;;;;;;;;;;4992693;28;20207;-54
2022/06/20 10:17:12;;;;;;;3.33;1.67;;;;;;;;;;5088516;28;20553;-54
2022/06/20 10:19:43;;;;;;;3.23;1.73;;;;;;;;;;5088664;28;20246;-55
2022/06/20 10:22:12;;;;;;;3.63;1.70;;;;;;;;;;5086924;28;20488;-59
2022/06/20 10:24:44;;;;;;;5.33;1.83;;;;;;;;;;5068809;28;20201;-59
2022/06/20 10:27:22;;;;;;;3.03;1.60;;;;;;;;;;5051048;28;20256;-58
2022/06/20 10:29:57;;;;;;;3.97;1.63;;;;;;;;;;5048084;28;20676;-58
2022/06/20 10:32:30;;;;;;;6.20;1.73;;;;;;;;;;5048351;28;20206;-58
2022/06/20 10:35:01;;;;;;;2.90;1.77;;;;;;;;;;5047681;28;20221;-58
2022/06/20 10:37:30;;;;;;;4.93;1.50;;;;;;;;;;5048468;28;20207;-58
2022/06/20 10:39:57;;;;;;;2.87;2.07;;;;;;;;;;5048116;28;20206;-58
2022/06/20 10:42:32;;;;;;;4.00;1.70;;;;;;;;;;5048273;28;20205;-58
2022/06/20 10:45:16;;;;;;;2.73;1.83;;;;;;;;;;5047914;28;20193;-58
2022/06/20 10:47:48;;;;;;;3.77;2.13;;;;;;;;;;5040874;28;20653;-58
2022/06/20 10:50:24;;;;;;;2.50;1.63;;;;;;;;;;5048255;28;20209;-58
2022/06/20 10:52:58;;;;;;;2.90;1.90;;;;;;;;;;5048131;28;20224;-59
2022/06/20 10:55:33;;;;;;;3.87;2.30;;;;;;;;;;5046317;28;20231;-57
2022/06/20 10:58:06;;;;;;;4.67;2.00;;;;;;;;;;5048042;28;20202;-57
2022/06/20 11:00:34;;;;;;;5.10;1.60;;;;;;;;;;5048002;28;20217;-57
2022/06/20 11:03:19;;;;;;;4.40;2.00;;;;;;;;;;5047970;28;20193;-58
2022/06/20 11:05:50;;;;;;;3.90;1.83;;;;;;;;;;5047769;28;20248;-57
2022/06/20 11:08:26;;;;;;;5.17;2.03;;;;;;;;;;5047994;28;20203;-56
2022/06/20 11:10:58;;;;;;;6.40;1.93;;;;;;;;;;5047746;28;20275;-57
2022/06/20 11:13:29;;;;;;;5.80;2.40;;;;;;;;;;5047695;28;20268;-58
2022/06/20 11:15:58;;;;;;;5.17;2.30;;;;;;;;;;5047462;28;20242;-58
2022/06/20 11:18:29;;;;;;;2.43;1.90;;;;;;;;;;5047531;28;20297;-58
2022/06/20 11:20:59;;;;;;;7.23;2.00;;;;;;;;;;5047619;28;20203;-58
2022/06/20 11:23:31;;;;;;;6.97;2.20;;;;;;;;;;5047874;28;20261;-58
2022/06/20 11:25:59;;;;;;;7.10;2.20;;;;;;;;;;5047507;28;20221;-58
2022/06/20 11:28:39;;;;;;;4.23;2.20;;;;;;;;;;5034165;28;20297;-58
2022/06/20 11:31:09;;;;;;;3.23;2.20;;;;;;;;;;5034786;28;20207;-58
2022/06/20 11:34:01;;;;;;;4.30;2.30;;;;;;;;;;5034505;28;20203;-57
2022/06/20 11:36:32;;;;;;;5.03;2.07;;;;;;;;;;5034111;28;20229;-58
2022/06/20 11:39:02;;;;;;;6.43;2.20;;;;;;;;;;5034075;28;20253;-58
2022/06/20 11:41:31;;;;;;;6.63;2.27;;;;;;;;;;5034196;28;20276;-57
2022/06/20 11:44:06;;;;;;;5.73;2.23;;;;;;;;;;5033357;28;20301;-59
2022/06/20 11:46:54;;;;;;;5.37;2.10;;;;;;;;;;5034052;28;20203;-58
2022/06/20 11:49:27;;;;;;;4.60;2.17;;;;;;;;;;5033899;28;20204;-56
2022/06/20 11:51:57;;;;;;;3.37;2.03;;;;;;;;;;5033701;28;20272;-56
2022/06/20 11:54:30;;;;;;;7.73;2.10;;;;;;;;;;5033683;28;20210;-56
2022/06/20 11:57:01;;;;;;;3.80;1.93;;;;;;;;;;5033619;28;20258;-57
2022/06/20 11:59:32;;;;;;;3.50;2.10;;;;;;;;;;5033694;28;20235;-57
2022/06/20 12:02:01;;;;;;;2.63;1.60;;;;;;;;;;5033498;28;20283;-57
2022/06/20 12:04:29;;;;;;;3.93;2.07;;;;;;;;;;5033790;28;20216;-57
2022/06/20 12:07:00;;;;;;;4.10;1.83;;;;;;;;;;5033548;28;20647;-57
2022/06/20 12:09:31;;;;;;;3.60;2.20;;;;;;;;;;5033582;28;20238;-57
2022/06/20 12:12:05;;;;;;;4.03;1.90;;;;;;;;;;5033350;28;20874;-57
2022/06/20 12:14:37;;;;;;;5.40;2.10;;;;;;;;;;5033238;28;20633;-58
2022/06/20 12:17:09;;;;;;;3.70;1.80;;;;;;;;;;5032867;28;20237;-58
2022/06/20 12:25:18;;;;;;;5.53;1.90;;;;;;;;;;5033152;28;20256;-58
2022/06/20 12:27:46;;;;;;;5.77;1.90;;;;;;;;;;5033078;28;20200;-58
2022/06/20 12:30:13;;;;;;;4.47;1.70;;;;;;;;;;5033302;28;20202;-58
2022/06/20 12:32:41;;;;;;;5.37;2.23;;;;;;;;;;5032833;28;20197;-58
2022/06/20 12:35:15;;;;;;;4.50;1.83;;;;;;;;;;5032741;28;20686;-58
2022/06/20 12:37:46;;;;;;;4.57;2.13;;;;;;;;;;5033029;28;20207;-58
2022/06/20 12:40:17;;;;;;;5.90;2.43;;;;;;;;;;5032138;28;20213;-58
2022/06/20 12:42:47;;;;;;;7.70;2.03;;;;;;;;;;5033037;28;20193;-57
2022/06/20 12:45:28;;;;;;;3.93;1.70;;;;;;;;;;5032959;28;20205;-57
2022/06/20 12:48:08;;;;;;;4.13;1.93;;;;;;;;;;5033181;28;20293;-58
2022/06/20 12:50:38;;;;;;;4.33;1.80;;;;;;;;;;5033043;28;20205;-58
2022/06/20 12:53:17;;;;;;;5.83;1.97;;;;;;;;;;5032622;28;20204;-58
2022/06/20 12:55:49;;;;;;;5.10;1.90;;;;;;;;;;5032746;28;20228;-58
2022/06/20 12:58:25;;;;;;;8.07;2.13;;;;;;;;;;5032579;28;20200;-58
2022/06/20 13:00:52;;;;;;;4.33;1.57;;;;;;;;;;5032290;28;20197;-57
2022/06/20 13:03:38;;;;;;;3.50;1.83;;;;;;;;;;5032416;28;20235;-58
2022/06/20 13:06:22;;;;;;;3.77;1.90;;;;;;;;;;5032395;28;20232;-58
2022/06/20 13:08:56;;;;;;;4.17;1.50;;;;;;;;;;5032235;28;20203;-56
2022/06/20 13:11:25;;;;;;;2.73;1.50;;;;;;;;;;5032482;28;20200;-58
2022/06/20 13:14:01;;;;;;;8.40;1.60;;;;;;;;;;5032284;28;20210;-57
2022/06/20 13:16:32;;;;;;;3.83;1.27;;;;;;;;;;5032223;28;20232;-57
2022/06/20 13:19:09;;;;;;;2.30;1.50;;;;;;;;;;5032277;28;20209;-57
2022/06/20 13:21:41;;;;;;;3.87;1.53;;;;;;;;;;5032303;28;20233;-57
2022/06/20 13:24:20;;;;;;;1.53;1.30;;;;;;;;;;5032177;28;20200;-58
2022/06/20 13:26:50;;;;;;;2.40;1.30;;;;;;;;;;5032530;28;20228;-58
2022/06/20 13:29:21;;;;;;;3.60;1.50;;;;;;;;;;5031953;28;20259;-57
2022/06/20 13:31:50;;;;;;;3.03;1.50;;;;;;;;;;5032373;28;20205;-57
2022/06/20 13:34:20;;;;;;;2.57;1.37;;;;;;;;;;5031774;28;20201;-59
2022/06/20 13:36:50;;;;;;;2.00;1.10;;;;;;;;;;5031730;28;20233;-58
2022/06/20 13:39:22;;;;;;;1.93;1.20;;;;;;;;;;5032361;28;20201;-56
2022/06/20 13:41:49;;;;;;;3.43;1.63;;;;;;;;;;5031249;28;20284;-59
2022/06/20 13:44:26;;;;;;;3.30;1.53;;;;;;;;;;5031271;28;20209;-58
2022/06/20 13:46:54;;;;;;;3.17;1.73;;;;;;;;;;5031218;28;20203;-58
2022/06/20 13:49:23;;;;;;;4.23;1.60;;;;;;;;;;5031272;28;20255;-58
2022/06/20 13:51:52;;;;;;;4.53;1.50;;;;;;;;;;5032029;28;20202;-58
2022/06/20 13:54:24;;;;;;;2.57;1.40;;;;;;;;;;5031968;28;20201;-58
2022/06/20 13:56:53;;;;;;;2.97;1.60;;;;;;;;;;5031627;28;20229;-59
2022/06/20 13:59:22;;;;;;;5.23;1.43;;;;;;;;;;5031459;28;20713;-58
2022/06/20 14:02:00;;;;;;;6.30;1.57;;;;;;;;;;5031641;28;20228;-59
2022/06/20 14:04:27;;;;;;;3.53;1.50;;;;;;;;;;5031815;28;20197;-59
2022/06/20 14:06:55;;;;;;;2.23;1.43;;;;;;;;;;5031417;28;20273;-59
2022/06/20 14:09:25;;;;;;;3.60;1.60;;;;;;;;;;5031398;28;20299;-58
2022/06/20 14:11:53;;;;;;;4.30;1.50;;;;;;;;;;5031335;28;20663;-59
2022/06/20 14:14:22;;;;;;;2.43;1.47;;;;;;;;;;5031222;28;20663;-58
2022/06/20 14:16:51;;;;;;;3.30;1.40;;;;;;;;;;5031343;28;20715;-59
2022/06/20 14:19:19;;;;;;;3.43;1.80;;;;;;;;;;5031604;28;20215;-57
2022/06/20 14:21:48;;;;;;;3.37;1.43;;;;;;;;;;5031233;28;20243;-58
2022/06/20 14:24:17;;;;;;;4.30;1.43;;;;;;;;;;5031011;28;20208;-58
2022/06/20 14:26:45;;;;;;;3.00;1.20;;;;;;;;;;5030990;28;20213;-59
2022/06/20 14:29:16;;;;;;;2.00;1.20;;;;;;;;;;5030783;28;20216;-58
2022/06/20 14:31:49;;;;;;;3.77;1.50;;;;;;;;;;5030958;28;20200;-59
2022/06/20 14:34:18;;;;;;;5.27;1.60;;;;;;;;;;5030658;28;20207;-59
2022/06/20 14:36:48;;;;;;;1.77;1.10;;;;;;;;;;5030641;28;20221;-58
2022/06/20 14:39:16;;;;;;;2.17;1.17;;;;;;;;;;5030576;28;20204;-58
2022/06/20 14:41:44;;;;;;;2.47;1.30;;;;;;;;;;5031101;28;20212;-58
2022/06/20 14:44:22;;;;;;;4.67;1.33;;;;;;;;;;5030688;28;20212;-59
2022/06/20 14:46:51;;;;;;;3.53;1.10;;;;;;;;;;5030901;28;20201;-58
2022/06/20 14:49:20;;;;;;;4.20;1.63;;;;;;;;;;5030769;28;20223;-57
2022/06/20 14:51:49;;;;;;;1.40;1.13;;;;;;;;;;5030525;28;20219;-59
2022/06/20 14:54:17;;;;;;;3.07;1.20;;;;;;;;;;5030666;28;20289;-58
2022/06/20 14:56:45;;;;;;;3.27;1.60;;;;;;;;;;5030767;28;20220;-58
2022/06/20 14:59:16;;;;;;;3.77;1.40;;;;;;;;;;5030443;28;20213;-59
2022/06/20 15:01:46;;;;;;;3.37;1.40;;;;;;;;;;5030675;28;20228;-59
2022/06/20 15:04:17;;;;;;;4.60;1.30;;;;;;;;;;5034308;28;20232;-58
2022/06/20 15:06:46;;;;;;;2.37;1.03;;;;;;;;;;5034322;28;20201;-59
2022/06/20 15:09:15;;;;;;;3.00;1.40;;;;;;;;;;5034348;28;20211;-58
2022/06/20 15:11:47;;;;;;;3.10;1.70;;;;;;;;;;5034252;28;20263;-58